Time;durP1;ratioP1;P1;durP2;ratioP2;P2;SDS_P1;SDS_P2;PMS_P1;PMS_P2;Temp;Humidity;BMP_temperature;BMP_pressure;BME280_temperature;BME280_humidity;BME280_pressure;Samples;Min_cycle;Max_cycle;Signal;HPM_P1;HPM_P2
2022/05/17 13:43:25;;;;;;;6.85;3.33;;;27.80;49.90;;;;;;5237689;27;20366;-74
2022/05/17 13:46:16;;;;;;;6.03;3.50;;;28.10;50.70;;;;;;5233755;28;20040;-73
2022/05/17 13:48:49;;;;;;;5.95;3.33;;;28.30;48.70;;;;;;5218404;28;20059;-74
2022/05/17 13:51:47;;;;;;;8.20;3.97;;;28.20;50.20;;;;;;5239862;28;20055;-73
2022/05/17 13:54:49;;;;;;;7.85;3.58;;;28.50;50.40;;;;;;5239948;28;20052;-74
2022/05/17 13:57:29;;;;;;;7.22;3.08;;;28.50;50.80;;;;;;5234934;28;20055;-74
2022/05/17 14:00:10;;;;;;;7.70;3.65;;;28.70;50.40;;;;;;5231070;28;20051;-74
2022/05/17 14:02:48;;;;;;;4.93;3.10;;;28.70;50.60;;;;;;5230804;28;20047;-74
2022/05/17 14:05:52;;;;;;;6.65;3.78;;;28.60;50.20;;;;;;5230603;28;20067;-74
2022/05/17 14:11:49;;;;;;;5.18;3.35;;;28.70;50.20;;;;;;5206471;28;20048;-74
2022/05/17 14:14:23;;;;;;;11.25;3.83;;;28.70;48.40;;;;;;5230554;28;20040;-74
2022/05/17 14:17:02;;;;;;;5.10;3.17;;;28.30;48.80;;;;;;5239650;28;20564;-74
2022/05/17 14:19:35;;;;;;;4.65;2.67;;;28.20;49.90;;;;;;5237599;28;20044;-74
2022/05/17 14:22:10;;;;;;;3.67;2.90;;;28.50;50.90;;;;;;5238060;28;20048;-74
2022/05/17 14:24:42;;;;;;;7.53;3.13;;;28.60;48.50;;;;;;5247189;28;20493;-73
2022/05/17 14:27:15;;;;;;;5.00;2.50;;;28.60;49.10;;;;;;5224360;28;20044;-74
2022/05/17 14:29:48;;;;;;;;;;;29.00;49.20;;;;;;5221270;28;20049;-73
2022/05/17 14:32:21;;;;;;;3.43;2.30;;;28.90;45.60;;;;;;5222019;28;19936;-74
2022/05/17 14:34:54;;;;;;;6.40;2.47;;;29.10;47.70;;;;;;5219120;28;20044;-74
2022/05/17 14:37:27;;;;;;;3.85;2.45;;;29.30;47.00;;;;;;5245345;28;20292;-74
2022/05/17 14:39:59;;;;;;;7.32;2.90;;;28.70;46.60;;;;;;5219601;28;20060;-74
2022/05/17 14:42:33;;;;;;;4.80;2.37;;;28.60;47.70;;;;;;5226888;28;20041;-74
2022/05/17 14:45:23;;;;;;;5.05;2.45;;;28.60;48.60;;;;;;5243878;28;20035;-75
2022/05/17 14:47:57;;;;;;;4.07;2.67;;;28.90;48.10;;;;;;5250500;28;20047;-74
2022/05/17 14:50:31;;;;;;;11.13;3.55;;;28.90;47.30;;;;;;5236341;28;20044;-73
2022/05/17 14:53:06;;;;;;;6.65;2.33;;;28.70;46.70;;;;;;5221139;28;20059;-73
2022/05/17 14:55:39;;;;;;;3.38;2.55;;;28.80;48.40;;;;;;5223199;28;20067;-74
2022/05/17 14:58:12;;;;;;;6.00;2.72;;;28.60;48.30;;;;;;5221282;28;20192;-74
2022/05/17 15:00:44;;;;;;;3.10;2.30;;;28.70;48.10;;;;;;5226142;28;20909;-73
2022/05/17 15:03:29;;;;;;;6.75;2.35;;;28.80;48.00;;;;;;5214339;28;20499;-74
2022/05/17 15:06:02;;;;;;;5.22;2.42;;;28.80;47.70;;;;;;5212844;28;20044;-74
2022/05/17 15:08:34;;;;;;;4.00;2.67;;;28.70;48.90;;;;;;5216309;28;20118;-74
2022/05/17 15:11:08;;;;;;;3.63;2.63;;;28.60;48.30;;;;;;5221995;28;21267;-75
2022/05/17 15:13:41;;;;;;;6.95;2.53;;;28.70;47.60;;;;;;5217131;28;20049;-74
2022/05/17 15:16:17;;;;;;;6.25;2.67;;;28.70;47.60;;;;;;5215385;28;20041;-74
2022/05/17 15:18:52;;;;;;;5.60;2.70;;;28.60;47.30;;;;;;5213767;28;20045;-74
2022/05/17 15:21:25;;;;;;;3.85;2.40;;;28.60;48.00;;;;;;5218766;22;20461;-89
2022/05/17 15:23:59;;;;;;;3.67;2.40;;;28.70;48.30;;;;;;5136762;28;20062;-86
2022/05/17 15:26:31;;;;;;;4.82;2.60;;;28.80;48.40;;;;;;5129702;28;20050;-87
2022/05/17 15:29:06;;;;;;;3.43;2.80;;;28.30;49.30;;;;;;5134249;28;20631;-86
2022/05/17 15:31:42;;;;;;;5.65;3.13;;;28.40;49.60;;;;;;5140847;28;20054;-82
2022/05/17 15:34:21;;;;;;;5.38;2.92;;;28.50;50.50;;;;;;5138278;28;20065;-81
2022/05/17 15:36:53;;;;;;;5.75;3.00;;;28.70;48.60;;;;;;5121152;28;20053;-83
2022/05/17 15:39:29;;;;;;;3.80;2.78;;;28.80;48.40;;;;;;5142870;28;20046;-83
2022/05/17 15:42:02;;;;;;;5.18;3.00;;;28.90;49.00;;;;;;5118966;28;20116;-82
2022/05/17 15:44:35;;;;;;;3.85;2.67;;;28.60;48.30;;;;;;5122848;28;20710;-81
2022/05/17 15:53:19;;;;;;;5.45;3.17;;;28.70;47.50;;;;;;5130739;28;20085;-82
2022/05/17 15:55:54;;;;;;;4.72;3.13;;;28.60;48.20;;;;;;5114330;28;20051;-85
2022/05/17 15:58:33;;;;;;;5.97;3.42;;;28.20;48.80;;;;;;5145286;28;20042;-86
2022/05/17 16:01:10;;;;;;;8.15;3.42;;;27.80;49.70;;;;;;5142524;28;20059;-87
2022/05/17 16:03:46;;;;;;;7.38;3.30;;;27.60;50.20;;;;;;5143168;28;20051;-86
2022/05/17 16:06:20;;;;;;;5.68;3.05;;;27.70;51.00;;;;;;5136028;28;20054;-85
2022/05/17 16:08:52;;;;;;;5.55;2.83;;;27.80;52.00;;;;;;5137754;28;20053;-84
2022/05/17 16:14:22;;;;;;;3.47;3.00;;;27.90;50.60;;;;;;5148015;28;20581;-87
2022/05/17 16:16:56;;;;;;;4.65;2.90;;;27.90;50.50;;;;;;5126293;28;20050;-85
2022/05/17 16:19:32;;;;;;;4.05;3.20;;;28.20;50.60;;;;;;5141293;28;20054;-86
2022/05/17 16:22:08;;;;;;;4.63;3.00;;;28.20;49.40;;;;;;5149624;28;20058;-87
2022/05/17 16:24:42;;;;;;;4.93;3.17;;;28.00;49.30;;;;;;5146249;28;20042;-86
2022/05/17 16:27:14;;;;;;;5.07;3.03;;;28.10;49.40;;;;;;5130419;28;20051;-86
2022/05/17 16:29:47;;;;;;;4.72;3.00;;;28.10;50.20;;;;;;5132691;28;20411;-80
2022/05/17 16:32:20;;;;;;;8.45;3.03;;;28.10;49.90;;;;;;5122921;28;20086;-81
2022/05/17 16:34:52;;;;;;;4.88;2.80;;;27.80;49.70;;;;;;5128230;28;21487;-82
2022/05/17 16:37:25;;;;;;;5.43;2.87;;;27.40;50.60;;;;;;5124632;28;20062;-80
2022/05/17 16:39:57;;;;;;;6.68;3.45;;;27.10;51.60;;;;;;5135171;28;20046;-81
2022/05/17 16:42:30;;;;;;;6.65;3.20;;;26.90;51.90;;;;;;5124746;28;20046;-80
2022/05/17 16:45:04;;;;;;;4.77;3.33;;;26.60;52.20;;;;;;5123791;28;20331;-82
2022/05/17 16:47:36;;;;;;;8.20;3.30;;;26.40;53.20;;;;;;5132885;28;20313;-80
2022/05/17 16:50:22;;;;;;;10.43;3.95;;;26.40;53.90;;;;;;5120232;28;20051;-81
2022/05/17 16:52:55;;;;;;;6.03;3.70;;;26.40;53.30;;;;;;5131205;28;20050;-80
2022/05/17 16:55:27;;;;;;;8.43;4.13;;;26.40;54.10;;;;;;5121571;28;20042;-78
2022/05/17 16:58:00;;;;;;;8.07;3.53;;;26.20;54.70;;;;;;5133421;28;20314;-79
2022/05/17 17:00:33;;;;;;;6.75;3.95;;;25.90;54.70;;;;;;5137063;28;20045;-80
2022/05/17 17:03:13;;;;;;;6.00;3.47;;;25.60;54.60;;;;;;5144240;28;20054;-84
2022/05/17 17:05:48;;;;;;;13.65;3.88;;;25.20;55.30;;;;;;5123328;28;20290;-84
2022/05/17 17:08:21;;;;;;;5.80;3.70;;;25.00;56.30;;;;;;5127583;28;20048;-79
2022/05/17 17:10:53;;;;;;;9.10;3.60;;;24.80;57.10;;;;;;5125161;28;20138;-80
2022/05/17 17:13:26;;;;;;;4.72;3.40;;;24.70;57.40;;;;;;5129649;28;20558;-80
2022/05/17 17:15:58;;;;;;;7.82;3.67;;;24.60;58.10;;;;;;5130254;28;20057;-79
2022/05/17 17:18:31;;;;;;;6.53;3.33;;;24.40;57.10;;;;;;5148197;28;20051;-81
2022/05/17 17:21:04;;;;;;;5.07;3.70;;;24.30;56.70;;;;;;5130031;28;20444;-81
2022/05/17 17:23:38;;;;;;;6.57;3.50;;;24.10;57.00;;;;;;5135636;28;20043;-79
2022/05/17 17:26:12;;;;;;;7.90;3.92;;;23.90;57.30;;;;;;5118013;28;20069;-80
2022/05/17 17:28:47;;;;;;;10.68;3.35;;;23.70;58.70;;;;;;5095665;28;20061;-79
2022/05/17 17:31:20;;;;;;;4.85;3.28;;;23.60;58.60;;;;;;5124327;28;20050;-83
2022/05/17 17:39:36;;;;;;;6.03;3.22;;;23.30;59.30;;;;;;5123976;28;20058;-81
2022/05/17 17:42:09;;;;;;;7.45;3.30;;;23.20;60.30;;;;;;5123294;28;20077;-79
2022/05/17 17:44:42;;;;;;;6.63;3.50;;;23.10;60.00;;;;;;5118834;28;20047;-80
2022/05/17 17:47:17;;;;;;;9.48;3.80;;;23.00;61.50;;;;;;5129961;28;20431;-79
2022/05/17 17:49:50;;;;;;;5.45;3.50;;;22.90;61.70;;;;;;5115346;28;20055;-80
2022/05/17 17:52:22;;;;;;;9.85;3.95;;;22.80;62.60;;;;;;5127437;28;20486;-85
2022/05/17 17:54:55;;;;;;;4.03;3.47;;;22.70;62.70;;;;;;5132195;28;20073;-83
2022/05/17 17:57:28;;;;;;;4.60;3.22;;;22.60;63.20;;;;;;5130219;28;20505;-78
2022/05/17 18:00:00;;;;;;;8.52;3.85;;;22.50;64.40;;;;;;5097793;28;20059;-81
2022/05/17 18:02:44;;;;;;;6.43;4.35;;;22.40;64.60;;;;;;5108293;28;20050;-81
2022/05/17 18:05:17;;;;;;;9.65;3.83;;;22.30;65.80;;;;;;5100924;28;20066;-79
2022/05/17 18:07:50;;;;;;;6.10;4.30;;;22.20;66.20;;;;;;5129908;28;20043;-81
2022/05/17 18:10:22;;;;;;;10.07;5.05;;;22.10;67.10;;;;;;5128340;28;20623;-83
2022/05/17 18:12:55;;;;;;;19.08;7.80;;;22.10;67.70;;;;;;5123862;28;22566;-80
2022/05/17 18:15:27;;;;;;;9.07;5.60;;;21.90;68.20;;;;;;5120624;28;20046;-83
2022/05/17 18:18:01;;;;;;;7.20;4.65;;;21.70;68.80;;;;;;5110699;28;20412;-81
2022/05/17 18:20:34;;;;;;;11.57;5.00;;;21.60;68.50;;;;;;5111489;28;20051;-82
2022/05/17 18:23:08;;;;;;;9.23;4.50;;;21.40;68.80;;;;;;5124822;28;20255;-80
2022/05/17 18:25:42;;;;;;;7.75;4.57;;;21.30;69.20;;;;;;5094211;28;20042;-81
2022/05/17 18:28:26;;;;;;;11.48;4.13;;;21.10;70.10;;;;;;5129571;28;20051;-82
2022/05/17 18:31:02;;;;;;;;;;;20.90;71.10;;;;;;5121479;28;20065;-81
2022/05/17 18:33:34;;;;;;;8.82;4.95;;;20.70;73.10;;;;;;5126952;28;19937;-79
2022/05/17 18:36:27;;;;;;;10.50;5.03;;;20.60;72.40;;;;;;5114184;28;20066;-79
2022/05/17 18:39:00;;;;;;;9.40;4.25;;;20.60;73.90;;;;;;5114388;28;21004;-81
2022/05/17 18:41:32;;;;;;;7.03;5.00;;;20.50;73.10;;;;;;5136050;28;20058;-81
2022/05/17 18:44:05;;;;;;;7.63;4.55;;;20.30;73.40;;;;;;5129149;28;20302;-79
2022/05/17 18:46:38;;;;;;;10.02;4.60;;;20.20;74.00;;;;;;5135794;28;20109;-81
2022/05/17 18:49:10;;;;;;;11.40;4.28;;;20.20;74.60;;;;;;5086713;28;20054;-81
2022/05/17 18:51:43;;;;;;;6.88;4.75;;;20.00;74.80;;;;;;5122773;28;20054;-80
2022/05/17 18:54:15;;;;;;;5.78;4.50;;;19.90;74.90;;;;;;5128835;28;20050;-78
2022/05/17 18:56:49;;;;;;;7.45;4.95;;;19.80;75.10;;;;;;5096551;28;20054;-84
2022/05/17 18:59:24;;;;;;;6.25;4.68;;;19.70;75.70;;;;;;5109034;28;20061;-83
2022/05/17 19:01:58;;;;;;;9.40;4.53;;;19.50;76.00;;;;;;5120532;28;20047;-82
2022/05/17 19:04:31;;;;;;;9.95;4.85;;;19.50;76.50;;;;;;5089574;28;20608;-84
2022/05/17 19:13:30;;;;;;;8.40;5.00;;;19.40;76.70;;;;;;5112034;28;20038;-83
2022/05/17 19:15:40;;;;;;;8.50;5.20;;;19.00;77.20;;;;;;5132153;28;20442;-83
2022/05/17 19:18:14;;;;;;;8.90;5.30;;;18.90;77.40;;;;;;5111340;28;20341;-83
2022/05/17 19:20:47;;;;;;;8.52;5.47;;;18.80;77.60;;;;;;5124888;28;20759;-80
2022/05/17 19:23:19;;;;;;;9.63;5.90;;;18.80;77.80;;;;;;5130241;28;20061;-82
2022/05/17 19:25:52;;;;;;;9.88;5.28;;;18.70;78.10;;;;;;5104107;28;20046;-79
2022/05/17 19:28:25;;;;;;;13.50;5.95;;;18.60;78.30;;;;;;5130473;28;20050;-81
2022/05/17 19:30:59;;;;;;;9.38;5.47;;;18.50;78.90;;;;;;5128112;28;20034;-83
2022/05/17 19:33:33;;;;;;;10.48;5.28;;;18.40;79.40;;;;;;5139224;28;20058;-84
2022/05/17 19:36:07;;;;;;;9.35;5.97;;;18.40;79.90;;;;;;5107579;28;20058;-82
2022/05/17 19:41:31;;;;;;;9.35;5.90;;;18.20;79.40;;;;;;5125646;28;20498;-80
2022/05/17 19:44:23;;;;;;;11.75;5.40;;;18.10;79.30;;;;;;5124780;28;20046;-82
2022/05/17 19:47:20;;;;;;;13.15;5.60;;;18.00;78.90;;;;;;5115724;28;20046;-80
2022/05/17 19:49:58;;;;;;;8.50;5.80;;;17.90;79.10;;;;;;5111497;28;20046;-81
2022/05/17 19:52:31;;;;;;;11.50;5.82;;;17.80;79.60;;;;;;5114668;28;20428;-81
2022/05/17 19:55:04;;;;;;;7.85;5.45;;;17.80;80.50;;;;;;5125282;28;20062;-80
2022/05/17 19:57:36;;;;;;;8.77;5.68;;;17.70;80.40;;;;;;5120557;28;20344;-80
2022/05/17 20:00:14;;;;;;;7.53;5.65;;;17.70;80.40;;;;;;5107371;28;20053;-79
2022/05/17 20:02:48;;;;;;;11.52;5.38;;;17.60;81.00;;;;;;5110964;28;20069;-79
2022/05/17 20:05:23;;;;;;;8.90;6.18;;;17.50;81.10;;;;;;5112190;28;20417;-81
2022/05/17 20:07:56;;;;;;;12.90;6.45;;;17.50;81.20;;;;;;5109814;28;20073;-86
2022/05/17 20:10:28;;;;;;;8.07;6.03;;;17.50;81.50;;;;;;5091165;28;20038;-84
2022/05/17 20:13:01;;;;;;;12.07;6.70;;;17.50;81.60;;;;;;5072011;28;20223;-80
2022/05/17 20:15:37;;;;;;;11.98;6.28;;;17.60;81.80;;;;;;5036985;28;20236;-81
2022/05/17 20:18:15;;;;;;;16.63;7.07;;;17.50;82.50;;;;;;5036782;28;20515;-83
2022/05/17 20:20:54;;;;;;;8.55;6.50;;;17.50;83.40;;;;;;5048806;28;20202;-83
2022/05/17 20:23:35;;;;;;;10.80;6.75;;;17.40;83.90;;;;;;5041177;28;20967;-82
2022/05/17 20:26:09;;;;;;;8.27;6.85;;;17.30;84.80;;;;;;5032620;28;20054;-85
2022/05/17 20:28:51;;;;;;;12.40;6.65;;;17.30;86.00;;;;;;5044362;28;20199;-80
2022/05/17 20:31:25;;;;;;;12.25;6.82;;;17.30;87.20;;;;;;5022102;28;20317;-81
2022/05/17 20:33:59;;;;;;;9.63;6.65;;;17.30;88.50;;;;;;5013237;28;20054;-85
2022/05/17 20:36:33;;;;;;;10.68;7.40;;;17.30;89.60;;;;;;5010147;28;20697;-83
2022/05/17 20:39:07;;;;;;;10.93;6.55;;;17.30;90.60;;;;;;5106138;28;21698;-84
2022/05/17 20:41:39;;;;;;;13.40;7.23;;;17.20;91.30;;;;;;5130778;28;20051;-84
2022/05/17 20:44:12;;;;;;;14.45;6.85;;;17.10;92.70;;;;;;5111259;28;20332;-82
2022/05/17 20:49:37;;;;;;;15.80;7.28;;;16.90;94.90;;;;;;5125004;28;20451;-83
2022/05/17 20:52:09;;;;;;;9.75;6.97;;;16.80;96.80;;;;;;5139890;28;20054;-82
2022/05/17 20:54:43;;;;;;;11.43;7.45;;;16.80;98.00;;;;;;5146371;28;20094;-81
2022/05/17 20:57:16;;;;;;;11.73;8.15;;;16.70;98.50;;;;;;5127112;28;20064;-82
2022/05/17 20:59:49;;;;;;;15.57;8.07;;;16.70;98.90;;;;;;5134668;28;20601;-83
2022/05/17 21:02:21;;;;;;;17.33;7.97;;;16.70;99.40;;;;;;5122497;28;20043;-81
2022/05/17 21:04:56;;;;;;;11.80;7.53;;;16.70;99.90;;;;;;5146052;28;20057;-79
2022/05/17 21:07:35;;;;;;;11.43;7.53;;;16.70;99.90;;;;;;5147455;28;20047;-86
2022/05/17 21:10:14;;;;;;;10.48;7.80;;;16.60;99.90;;;;;;5140099;28;20053;-80
2022/05/17 21:12:46;;;;;;;12.32;8.65;;;16.60;99.90;;;;;;5125138;28;20050;-81
2022/05/17 21:15:20;;;;;;;13.60;9.10;;;16.50;99.90;;;;;;5125170;28;20046;-80
2022/05/17 21:17:53;;;;;;;13.07;8.80;;;16.50;99.90;;;;;;5105313;28;20054;-83
2022/05/17 21:20:25;;;;;;;11.88;8.35;;;16.40;99.90;;;;;;5142706;28;20350;-82
2022/05/17 21:22:59;;;;;;;10.93;8.73;;;16.40;99.90;;;;;;5145212;28;20380;-82
2022/05/17 21:25:31;;;;;;;;;;;16.40;99.90;;;;;;5128704;28;20054;-83
2022/05/17 21:28:06;;;;;;;13.48;8.38;;;16.20;99.90;;;;;;5136060;28;19926;-83
2022/05/17 21:30:39;;;;;;;11.98;8.60;;;16.10;99.90;;;;;;5119359;28;20414;-83
2022/05/17 21:33:12;;;;;;;16.00;9.20;;;16.10;99.90;;;;;;5128804;28;20089;-83
2022/05/17 21:35:45;;;;;;;14.10;9.02;;;16.10;99.90;;;;;;5156373;23;20582;-71
2022/05/17 21:38:19;;;;;;;30.08;8.68;;;16.20;99.90;;;;;;5202967;28;20037;-71
2022/05/17 21:40:51;;;;;;;13.15;9.50;;;16.10;99.90;;;;;;5215572;28;20059;-72
2022/05/17 21:43:25;;;;;;;11.20;8.98;;;16.10;99.90;;;;;;5207310;28;20053;-70
2022/05/17 21:45:59;;;;;;;15.97;8.67;;;16.00;99.90;;;;;;5190877;28;20040;-71
2022/05/17 21:48:31;;;;;;;;;;;15.90;99.90;;;;;;5213810;28;20041;-71
2022/05/17 21:51:04;;;;;;;11.95;8.35;;;15.70;99.90;;;;;;5207562;28;19924;-72
2022/05/17 21:53:36;;;;;;;13.68;8.38;;;15.80;99.90;;;;;;5213201;28;20045;-70
2022/05/17 21:56:09;;;;;;;19.95;8.20;;;15.80;99.90;;;;;;5204363;28;20052;-70
2022/05/17 21:58:43;;;;;;;12.65;9.10;;;15.80;99.90;;;;;;5209584;28;20047;-70
2022/05/17 22:01:16;;;;;;;16.42;8.40;;;15.80;99.90;;;;;;5208278;28;20055;-71
2022/05/17 22:03:48;;;;;;;14.45;8.75;;;15.70;99.90;;;;;;5205216;28;20052;-71
2022/05/17 22:06:21;;;;;;;11.90;8.38;;;15.70;99.90;;;;;;4863987;28;10000710;-71
2022/05/17 22:08:54;;;;;;;16.63;10.37;;;15.70;99.90;;;;;;4862524;28;10000615;-71
2022/05/17 22:14:18;;;;;;;11.90;7.72;;;15.60;99.90;;;;;;5206451;28;20056;-71
2022/05/17 22:16:51;;;;;;;10.38;7.90;;;15.50;99.90;;;;;;5215303;28;20053;-72
2022/05/17 22:19:23;;;;;;;11.27;7.85;;;15.50;99.90;;;;;;5201085;28;20052;-73
2022/05/17 22:21:56;;;;;;;13.45;8.27;;;15.50;99.90;;;;;;5208345;28;20037;-72
2022/05/17 22:24:28;;;;;;;13.23;8.48;;;15.50;99.90;;;;;;5217460;28;20385;-72
2022/05/17 22:27:01;;;;;;;12.63;8.63;;;15.50;99.90;;;;;;5214406;28;20044;-72
2022/05/17 22:29:33;;;;;;;16.27;8.85;;;15.40;99.90;;;;;;5210110;28;20045;-72
2022/05/17 22:32:09;;;;;;;14.35;8.85;;;15.30;99.90;;;;;;5214117;28;20045;-73
2022/05/17 22:34:42;;;;;;;11.13;7.90;;;15.30;99.90;;;;;;5188151;28;20052;-73
2022/05/17 22:37:14;;;;;;;16.70;9.38;;;15.30;99.90;;;;;;5207680;28;20044;-71
2022/05/17 22:39:47;;;;;;;16.20;8.70;;;15.30;99.90;;;;;;5213431;28;20041;-71
2022/05/17 22:42:19;;;;;;;10.85;8.20;;;15.30;99.90;;;;;;5192664;28;20520;-72
2022/05/17 22:47:43;;;;;;;12.75;8.25;;;15.20;99.90;;;;;;5209816;28;20497;-71
2022/05/17 22:50:16;;;;;;;15.85;8.30;;;15.20;99.90;;;;;;5190086;28;20037;-71
2022/05/17 22:52:50;;;;;;;13.00;8.27;;;15.20;99.90;;;;;;5192130;28;20774;-71
2022/05/17 22:55:22;;;;;;;17.27;8.90;;;15.20;99.90;;;;;;5206734;28;20048;-71
2022/05/17 22:57:55;;;;;;;15.38;8.77;;;15.10;99.90;;;;;;5205572;28;20036;-73
2022/05/17 23:00:27;;;;;;;11.18;7.88;;;15.00;99.90;;;;;;5223993;28;20534;-72
2022/05/17 23:03:01;;;;;;;10.68;8.40;;;14.90;99.90;;;;;;5219607;28;20051;-72
2022/05/17 23:05:33;;;;;;;11.45;9.00;;;14.90;99.90;;;;;;5197191;28;20044;-71
2022/05/17 23:08:06;;;;;;;16.67;9.05;;;14.90;99.90;;;;;;5223173;28;20344;-72
2022/05/17 23:10:39;;;;;;;17.87;9.00;;;14.90;99.90;;;;;;5204526;28;20458;-72
2022/05/17 23:13:12;;;;;;;15.00;8.15;;;14.90;99.90;;;;;;5209099;28;20040;-72
2022/05/17 23:15:44;;;;;;;16.10;7.70;;;14.80;99.90;;;;;;5219773;28;20510;-71
2022/05/17 23:18:16;;;;;;;14.38;8.30;;;14.80;99.90;;;;;;5204916;28;20432;-71
2022/05/17 23:20:49;;;;;;;12.35;8.88;;;14.80;99.90;;;;;;5215174;28;20056;-72
2022/05/17 23:23:21;;;;;;;12.13;8.52;;;14.80;99.90;;;;;;5216941;28;20417;-72
2022/05/17 23:28:45;;;;;;;12.68;8.73;;;14.60;99.90;;;;;;5210550;28;20044;-73
2022/05/17 23:31:23;;;;;;;12.30;8.70;;;14.70;99.90;;;;;;5206461;28;20513;-73
2022/05/17 23:33:57;;;;;;;10.43;7.90;;;14.60;99.90;;;;;;5218291;28;20440;-73
2022/05/17 23:36:30;;;;;;;16.30;8.30;;;14.60;99.90;;;;;;5205192;28;20045;-71
2022/05/17 23:39:05;;;;;;;12.13;8.47;;;14.60;99.90;;;;;;5218265;28;20055;-72
2022/05/17 23:41:38;;;;;;;20.63;8.98;;;14.60;99.90;;;;;;5213639;28;20045;-71
2022/05/17 23:44:10;;;;;;;14.25;8.05;;;14.60;99.90;;;;;;5213632;28;20060;-72
2022/05/17 23:46:43;;;;;;;12.07;7.57;;;14.60;99.90;;;;;;5216736;28;20045;-71
2022/05/17 23:49:16;;;;;;;11.48;8.00;;;14.50;99.90;;;;;;5202074;28;20068;-71
2022/05/17 23:51:50;;;;;;;14.45;7.78;;;14.40;99.90;;;;;;5217374;28;20162;-71
2022/05/17 23:54:23;;;;;;;18.98;8.75;;;14.30;99.90;;;;;;5214245;28;20040;-70
2022/05/17 23:56:55;;;;;;;21.73;8.45;;;14.30;99.90;;;;;;5207712;28;20495;-72
2022/05/17 23:59:27;;;;;;;12.15;7.78;;;14.30;99.90;;;;;;5221556;28;20052;-71
